Nallen, West Virginia
Current Conditions -  °F | °C
As of 9:51 PM on Monday 22 Dec 2014 (Local Time) from KBKW Reporting Station
Overcast Overcast  
Wind Chill: 28°   Ceiling: 700
Heat Index: 37°   Visibility: 10mi
Dew Point: 33°   Wind: 16mph
Humidity: 86%   Direction: 140°SE
Pressure: 29.93"   Gusts: 24mph
Location:  38.11°N, 80.88°W
Report Text: KBKW 230251Z AUTO 14014G21KT 10SM OVC007 03/01 A2993 RMK AO2 SLP154 T00280006 56003
Loading
Personal Weather Stations






























Interactive Weather Map New forecast layout! Learn more

10-Day Weather Forecast

Advertisements
Track Severe Weather on mobile